sensor_id;sensor_type;location;lat;lon;timestamp;pressure;altitude;pressure_sealevel;temperature;humidity
24154;BME280;12312;53.362;-1.518;2022-08-19T00:00:30;98771.25;;;17.15;94.56
24154;BME280;12312;53.362;-1.518;2022-08-19T00:02:56;98770.03;;;17.09;95.66
24154;BME280;12312;53.362;-1.518;2022-08-19T00:05:22;98766.84;;;17.06;95.55
24154;BME280;12312;53.362;-1.518;2022-08-19T00:07:49;98773.91;;;17.07;95.83
24154;BME280;12312;53.362;-1.518;2022-08-19T00:10:17;98772.94;;;17.16;94.77
24154;BME280;12312;53.362;-1.518;2022-08-19T00:12:43;98778.97;;;17.10;95.34
24154;BME280;12312;53.362;-1.518;2022-08-19T00:15:17;98770.38;;;16.98;94.55
24154;BME280;12312;53.362;-1.518;2022-08-19T00:17:44;98772.38;;;16.96;94.29
24154;BME280;12312;53.362;-1.518;2022-08-19T00:20:15;98778.59;;;16.97;94.29
24154;BME280;12312;53.362;-1.518;2022-08-19T00:22:43;98780.78;;;17.01;93.37
24154;BME280;12312;53.362;-1.518;2022-08-19T00:25:10;98783.97;;;16.97;93.48
24154;BME280;12312;53.362;-1.518;2022-08-19T00:27:36;98799.16;;;16.80;91.81
24154;BME280;12312;53.362;-1.518;2022-08-19T00:30:03;98803.03;;;16.52;88.04
24154;BME280;12312;53.362;-1.518;2022-08-19T00:32:29;98803.09;;;16.17;85.40
24154;BME280;12312;53.362;-1.518;2022-08-19T00:34:55;98806.78;;;15.98;84.49
24154;BME280;12312;53.362;-1.518;2022-08-19T00:37:22;98800.38;;;15.91;84.09
24154;BME280;12312;53.362;-1.518;2022-08-19T00:39:49;98811.41;;;15.88;84.63
24154;BME280;12312;53.362;-1.518;2022-08-19T00:42:18;98817.41;;;15.82;84.48
24154;BME280;12312;53.362;-1.518;2022-08-19T00:44:44;98810.63;;;15.78;84.15
24154;BME280;12312;53.362;-1.518;2022-08-19T00:47:10;98811.94;;;15.74;85.13
24154;BME280;12312;53.362;-1.518;2022-08-19T00:49:54;98809.88;;;15.68;85.70
24154;BME280;12312;53.362;-1.518;2022-08-19T00:52:26;98812.94;;;15.73;85.91
24154;BME280;12312;53.362;-1.518;2022-08-19T00:54:55;98811.03;;;15.66;86.96
24154;BME280;12312;53.362;-1.518;2022-08-19T00:57:35;98808.81;;;15.61;87.18
24154;BME280;12312;53.362;-1.518;2022-08-19T01:00:08;98807.41;;;15.57;86.73
24154;BME280;12312;53.362;-1.518;2022-08-19T01:02:57;98817.91;;;15.51;85.68
24154;BME280;12312;53.362;-1.518;2022-08-19T01:05:25;98811.94;;;15.57;85.57
24154;BME280;12312;53.362;-1.518;2022-08-19T01:07:53;98807.72;;;15.54;85.19
24154;BME280;12312;53.362;-1.518;2022-08-19T01:10:23;98818.22;;;15.48;84.93
24154;BME280;12312;53.362;-1.518;2022-08-19T01:12:50;98821.38;;;15.43;84.17
24154;BME280;12312;53.362;-1.518;2022-08-19T01:15:20;98821.72;;;15.48;83.74
24154;BME280;12312;53.362;-1.518;2022-08-19T01:17:46;98820.19;;;15.46;81.65
24154;BME280;12312;53.362;-1.518;2022-08-19T01:20:20;98818.84;;;15.42;80.88
24154;BME280;12312;53.362;-1.518;2022-08-19T01:22:58;98812.63;;;15.41;80.50
24154;BME280;12312;53.362;-1.518;2022-08-19T01:25:30;98814.59;;;15.39;80.32
24154;BME280;12312;53.362;-1.518;2022-08-19T01:27:57;98821.94;;;15.37;80.90
24154;BME280;12312;53.362;-1.518;2022-08-19T01:30:26;98827.41;;;15.36;80.99
24154;BME280;12312;53.362;-1.518;2022-08-19T01:32:53;98835.47;;;15.36;81.22
24154;BME280;12312;53.362;-1.518;2022-08-19T01:35:20;98836.22;;;15.28;81.09
24154;BME280;12312;53.362;-1.518;2022-08-19T01:37:59;98828.16;;;15.28;80.40
24154;BME280;12312;53.362;-1.518;2022-08-19T01:40:28;98836.97;;;15.21;81.80
24154;BME280;12312;53.362;-1.518;2022-08-19T01:42:54;98840.50;;;15.21;81.29
24154;BME280;12312;53.362;-1.518;2022-08-19T01:45:23;98847.22;;;15.25;81.69
24154;BME280;12312;53.362;-1.518;2022-08-19T01:47:49;98847.09;;;15.27;81.11
24154;BME280;12312;53.362;-1.518;2022-08-19T01:50:16;98835.25;;;15.29;80.82
24154;BME280;12312;53.362;-1.518;2022-08-19T01:52:43;98841.84;;;15.08;80.75
24154;BME280;12312;53.362;-1.518;2022-08-19T01:55:13;98830.06;;;14.91;81.31
24154;BME280;12312;53.362;-1.518;2022-08-19T01:57:43;98837.69;;;14.86;81.92
24154;BME280;12312;53.362;-1.518;2022-08-19T02:00:13;98840.53;;;14.85;82.27
24154;BME280;12312;53.362;-1.518;2022-08-19T02:02:41;98852.09;;;14.85;83.69
24154;BME280;12312;53.362;-1.518;2022-08-19T02:05:07;98843.88;;;14.96;82.40
24154;BME280;12312;53.362;-1.518;2022-08-19T02:07:34;98844.69;;;14.97;83.27
24154;BME280;12312;53.362;-1.518;2022-08-19T02:10:03;98852.88;;;14.95;82.63
24154;BME280;12312;53.362;-1.518;2022-08-19T02:12:29;98860.09;;;14.95;83.85
24154;BME280;12312;53.362;-1.518;2022-08-19T02:14:55;98853.19;;;14.92;83.61
24154;BME280;12312;53.362;-1.518;2022-08-19T02:17:21;98860.00;;;14.77;83.58
24154;BME280;12312;53.362;-1.518;2022-08-19T02:19:46;98875.94;;;14.79;83.65
24154;BME280;12312;53.362;-1.518;2022-08-19T02:22:14;98878.44;;;14.90;84.44
24154;BME280;12312;53.362;-1.518;2022-08-19T02:24:40;98877.47;;;14.81;84.11
24154;BME280;12312;53.362;-1.518;2022-08-19T02:27:06;98871.16;;;14.82;84.63
24154;BME280;12312;53.362;-1.518;2022-08-19T02:29:32;98880.06;;;14.64;84.56
24154;BME280;12312;53.362;-1.518;2022-08-19T02:31:57;98881.44;;;14.77;83.75
24154;BME280;12312;53.362;-1.518;2022-08-19T02:34:24;98886.81;;;14.77;82.58
24154;BME280;12312;53.362;-1.518;2022-08-19T02:36:51;98880.19;;;14.72;82.52
24154;BME280;12312;53.362;-1.518;2022-08-19T02:39:17;98869.63;;;14.70;81.00
24154;BME280;12312;53.362;-1.518;2022-08-19T02:41:43;98879.22;;;14.63;82.19
24154;BME280;12312;53.362;-1.518;2022-08-19T02:44:09;98875.28;;;14.58;81.37
24154;BME280;12312;53.362;-1.518;2022-08-19T02:46:34;98873.84;;;14.63;81.12
24154;BME280;12312;53.362;-1.518;2022-08-19T02:49:04;98879.13;;;14.36;81.30
24154;BME280;12312;53.362;-1.518;2022-08-19T02:51:39;98879.56;;;14.41;81.50
24154;BME280;12312;53.362;-1.518;2022-08-19T02:54:06;98879.28;;;14.44;80.73
24154;BME280;12312;53.362;-1.518;2022-08-19T02:56:34;98878.97;;;14.47;80.48
24154;BME280;12312;53.362;-1.518;2022-08-19T02:58:59;98878.13;;;14.47;80.13
24154;BME280;12312;53.362;-1.518;2022-08-19T03:01:31;98886.72;;;14.50;80.38
24154;BME280;12312;53.362;-1.518;2022-08-19T03:03:58;98888.84;;;14.37;80.74
24154;BME280;12312;53.362;-1.518;2022-08-19T03:06:27;98892.38;;;14.47;80.75
24154;BME280;12312;53.362;-1.518;2022-08-19T03:08:53;98895.84;;;14.67;80.25
24154;BME280;12312;53.362;-1.518;2022-08-19T03:11:24;98905.84;;;14.74;79.73
24154;BME280;12312;53.362;-1.518;2022-08-19T03:13:50;98904.47;;;14.70;79.86
24154;BME280;12312;53.362;-1.518;2022-08-19T03:16:17;98901.47;;;14.73;78.67
24154;BME280;12312;53.362;-1.518;2022-08-19T03:18:43;98897.81;;;14.74;78.65
24154;BME280;12312;53.362;-1.518;2022-08-19T03:21:09;98896.13;;;14.73;78.80
24154;BME280;12312;53.362;-1.518;2022-08-19T03:23:35;98901.19;;;14.76;79.19
24154;BME280;12312;53.362;-1.518;2022-08-19T03:26:04;98904.91;;;14.56;79.42
24154;BME280;12312;53.362;-1.518;2022-08-19T03:28:30;98908.00;;;14.42;80.16
24154;BME280;12312;53.362;-1.518;2022-08-19T03:31:04;98899.69;;;14.45;80.45
24154;BME280;12312;53.362;-1.518;2022-08-19T03:33:31;98912.81;;;14.29;80.92
24154;BME280;12312;53.362;-1.518;2022-08-19T03:36:21;98918.19;;;14.29;80.92
24154;BME280;12312;53.362;-1.518;2022-08-19T03:38:50;98911.53;;;14.23;80.88
24154;BME280;12312;53.362;-1.518;2022-08-19T03:41:21;98912.50;;;14.13;80.62
24154;BME280;12312;53.362;-1.518;2022-08-19T03:43:47;98912.50;;;14.03;81.05
24154;BME280;12312;53.362;-1.518;2022-08-19T03:46:19;98917.84;;;13.94;81.76
24154;BME280;12312;53.362;-1.518;2022-08-19T03:48:50;98916.72;;;13.87;82.00
24154;BME280;12312;53.362;-1.518;2022-08-19T03:51:31;98924.31;;;13.82;82.52
24154;BME280;12312;53.362;-1.518;2022-08-19T03:53:59;98927.94;;;13.81;82.19
24154;BME280;12312;53.362;-1.518;2022-08-19T03:56:26;98933.16;;;13.73;82.81
24154;BME280;12312;53.362;-1.518;2022-08-19T03:58:54;98927.38;;;13.68;82.85
24154;BME280;12312;53.362;-1.518;2022-08-19T04:01:23;98933.28;;;13.62;83.14
24154;BME280;12312;53.362;-1.518;2022-08-19T04:03:49;98931.31;;;13.64;83.25
24154;BME280;12312;53.362;-1.518;2022-08-19T04:06:20;98930.88;;;13.59;83.54
24154;BME280;12312;53.362;-1.518;2022-08-19T04:08:50;98934.09;;;13.53;84.23
24154;BME280;12312;53.362;-1.518;2022-08-19T04:11:18;98940.25;;;13.44;84.31
24154;BME280;12312;53.362;-1.518;2022-08-19T04:13:49;98935.31;;;13.39;84.62
24154;BME280;12312;53.362;-1.518;2022-08-19T04:16:17;98934.91;;;13.44;84.43
24154;BME280;12312;53.362;-1.518;2022-08-19T04:18:43;98940.41;;;13.42;84.04
24154;BME280;12312;53.362;-1.518;2022-08-19T04:21:16;98938.31;;;13.46;84.06
24154;BME280;12312;53.362;-1.518;2022-08-19T04:23:42;98953.91;;;13.41;84.39
24154;BME280;12312;53.362;-1.518;2022-08-19T04:26:12;98955.84;;;13.39;84.41
24154;BME280;12312;53.362;-1.518;2022-08-19T04:28:38;98952.16;;;13.30;84.83
24154;BME280;12312;53.362;-1.518;2022-08-19T04:31:03;98953.00;;;13.31;85.04
24154;BME280;12312;53.362;-1.518;2022-08-19T04:33:29;98951.75;;;13.35;85.12
24154;BME280;12312;53.362;-1.518;2022-08-19T04:35:54;98953.75;;;13.42;84.43
24154;BME280;12312;53.362;-1.518;2022-08-19T04:38:21;98952.38;;;13.48;84.10
24154;BME280;12312;53.362;-1.518;2022-08-19T04:40:50;98957.84;;;13.46;84.33
24154;BME280;12312;53.362;-1.518;2022-08-19T04:43:38;98959.97;;;13.43;84.43
24154;BME280;12312;53.362;-1.518;2022-08-19T04:46:08;98962.22;;;13.47;83.97
24154;BME280;12312;53.362;-1.518;2022-08-19T04:48:35;98965.72;;;13.38;84.31
24154;BME280;12312;53.362;-1.518;2022-08-19T04:51:01;98966.09;;;13.34;84.20
24154;BME280;12312;53.362;-1.518;2022-08-19T04:53:32;98971.19;;;13.37;83.99
24154;BME280;12312;53.362;-1.518;2022-08-19T04:55:59;98965.44;;;13.41;83.76
24154;BME280;12312;53.362;-1.518;2022-08-19T04:58:28;98970.94;;;13.40;83.78
24154;BME280;12312;53.362;-1.518;2022-08-19T05:00:54;98976.78;;;13.34;83.84
24154;BME280;12312;53.362;-1.518;2022-08-19T05:03:20;98979.84;;;13.29;83.91
24154;BME280;12312;53.362;-1.518;2022-08-19T05:05:47;98978.50;;;13.35;83.51
24154;BME280;12312;53.362;-1.518;2022-08-19T05:08:19;98976.22;;;13.30;83.29
24154;BME280;12312;53.362;-1.518;2022-08-19T05:10:50;98982.50;;;13.20;83.45
24154;BME280;12312;53.362;-1.518;2022-08-19T05:13:18;98981.31;;;13.13;83.94
24154;BME280;12312;53.362;-1.518;2022-08-19T05:15:44;98985.38;;;13.07;83.88
24154;BME280;12312;53.362;-1.518;2022-08-19T05:18:18;98982.50;;;12.99;84.18
24154;BME280;12312;53.362;-1.518;2022-08-19T05:21:09;98987.66;;;13.12;83.73
24154;BME280;12312;53.362;-1.518;2022-08-19T05:23:54;98993.69;;;12.93;84.50
24154;BME280;12312;53.362;-1.518;2022-08-19T05:26:20;98998.16;;;13.04;85.04
24154;BME280;12312;53.362;-1.518;2022-08-19T05:28:46;99001.63;;;13.25;87.00
24154;BME280;12312;53.362;-1.518;2022-08-19T05:31:13;99003.75;;;13.21;84.12
24154;BME280;12312;53.362;-1.518;2022-08-19T05:33:39;99011.38;;;13.26;83.61
24154;BME280;12312;53.362;-1.518;2022-08-19T05:36:06;99018.19;;;13.19;84.37
24154;BME280;12312;53.362;-1.518;2022-08-19T05:38:33;99014.91;;;13.06;84.20
24154;BME280;12312;53.362;-1.518;2022-08-19T05:40:59;99022.47;;;13.01;85.07
24154;BME280;12312;53.362;-1.518;2022-08-19T05:43:25;99024.06;;;13.13;83.97
24154;BME280;12312;53.362;-1.518;2022-08-19T05:45:51;99018.31;;;13.08;84.61
24154;BME280;12312;53.362;-1.518;2022-08-19T05:48:16;99018.84;;;13.02;84.95
24154;BME280;12312;53.362;-1.518;2022-08-19T05:50:46;99015.94;;;12.94;85.68
24154;BME280;12312;53.362;-1.518;2022-08-19T05:53:12;99029.50;;;13.02;85.12
24154;BME280;12312;53.362;-1.518;2022-08-19T05:55:38;99030.16;;;13.15;85.31
24154;BME280;12312;53.362;-1.518;2022-08-19T05:58:04;99021.41;;;13.13;85.29
24154;BME280;12312;53.362;-1.518;2022-08-19T06:00:33;99025.00;;;13.23;84.71
24154;BME280;12312;53.362;-1.518;2022-08-19T06:02:59;99020.41;;;13.34;84.79
24154;BME280;12312;53.362;-1.518;2022-08-19T06:05:30;99015.38;;;13.41;83.93
24154;BME280;12312;53.362;-1.518;2022-08-19T06:07:55;99012.53;;;13.33;84.14
24154;BME280;12312;53.362;-1.518;2022-08-19T06:10:21;99013.44;;;13.43;83.71
24154;BME280;12312;53.362;-1.518;2022-08-19T06:12:47;99016.53;;;13.48;83.22
24154;BME280;12312;53.362;-1.518;2022-08-19T06:15:14;99018.50;;;13.46;83.80
24154;BME280;12312;53.362;-1.518;2022-08-19T06:17:40;99025.28;;;13.50;83.62
24154;BME280;12312;53.362;-1.518;2022-08-19T06:20:09;99022.66;;;13.59;83.41
24154;BME280;12312;53.362;-1.518;2022-08-19T06:22:38;99025.75;;;13.64;83.19
24154;BME280;12312;53.362;-1.518;2022-08-19T06:25:06;99041.25;;;13.70;82.69
24154;BME280;12312;53.362;-1.518;2022-08-19T06:27:34;99034.06;;;13.71;82.72
24154;BME280;12312;53.362;-1.518;2022-08-19T06:30:01;99037.56;;;13.62;82.77
24154;BME280;12312;53.362;-1.518;2022-08-19T06:32:27;99040.56;;;13.78;82.90
24154;BME280;12312;53.362;-1.518;2022-08-19T06:34:52;99041.66;;;13.96;82.82
24154;BME280;12312;53.362;-1.518;2022-08-19T06:37:18;99024.25;;;13.81;81.89
24154;BME280;12312;53.362;-1.518;2022-08-19T06:39:44;99031.06;;;13.94;81.65
24154;BME280;12312;53.362;-1.518;2022-08-19T06:42:12;99031.97;;;14.14;81.89
24154;BME280;12312;53.362;-1.518;2022-08-19T06:44:43;99041.47;;;13.88;80.92
24154;BME280;12312;53.362;-1.518;2022-08-19T06:47:13;99037.81;;;13.89;81.00
24154;BME280;12312;53.362;-1.518;2022-08-19T06:49:39;99041.75;;;13.85;81.52
24154;BME280;12312;53.362;-1.518;2022-08-19T06:52:05;99032.22;;;14.01;80.66
24154;BME280;12312;53.362;-1.518;2022-08-19T06:54:32;99041.66;;;14.05;81.09
24154;BME280;12312;53.362;-1.518;2022-08-19T06:56:58;99042.19;;;13.90;81.06
24154;BME280;12312;53.362;-1.518;2022-08-19T06:59:28;99043.78;;;14.02;81.14
24154;BME280;12312;53.362;-1.518;2022-08-19T07:01:57;99043.50;;;14.05;81.00
24154;BME280;12312;53.362;-1.518;2022-08-19T07:04:28;99052.22;;;14.07;81.08
24154;BME280;12312;53.362;-1.518;2022-08-19T07:07:14;99057.19;;;14.21;79.50
24154;BME280;12312;53.362;-1.518;2022-08-19T07:09:41;99057.47;;;14.18;79.90
24154;BME280;12312;53.362;-1.518;2022-08-19T07:12:09;99060.69;;;14.12;79.35
24154;BME280;12312;53.362;-1.518;2022-08-19T07:14:36;99061.03;;;14.28;78.90
24154;BME280;12312;53.362;-1.518;2022-08-19T07:17:05;99057.13;;;14.51;78.49
24154;BME280;12312;53.362;-1.518;2022-08-19T07:19:31;99061.63;;;14.60;76.87
24154;BME280;12312;53.362;-1.518;2022-08-19T07:21:57;99055.41;;;14.41;77.00
24154;BME280;12312;53.362;-1.518;2022-08-19T07:24:25;99048.97;;;14.62;77.30
24154;BME280;12312;53.362;-1.518;2022-08-19T07:26:53;99059.53;;;14.73;77.20
24154;BME280;12312;53.362;-1.518;2022-08-19T07:29:21;99052.19;;;14.94;75.90
24154;BME280;12312;53.362;-1.518;2022-08-19T07:31:49;99057.44;;;14.67;76.74
24154;BME280;12312;53.362;-1.518;2022-08-19T07:34:16;99061.66;;;14.51;76.17
24154;BME280;12312;53.362;-1.518;2022-08-19T07:37:06;99067.84;;;14.70;76.38
24154;BME280;12312;53.362;-1.518;2022-08-19T07:39:35;99062.78;;;14.96;75.22
24154;BME280;12312;53.362;-1.518;2022-08-19T07:42:05;99064.31;;;14.98;75.63
24154;BME280;12312;53.362;-1.518;2022-08-19T07:44:32;99059.25;;;15.05;75.29
24154;BME280;12312;53.362;-1.518;2022-08-19T07:47:00;99057.28;;;15.07;74.68
24154;BME280;12312;53.362;-1.518;2022-08-19T07:49:27;99074.56;;;15.31;72.74
24154;BME280;12312;53.362;-1.518;2022-08-19T07:52:05;99076.13;;;15.24;71.55
24154;BME280;12312;53.362;-1.518;2022-08-19T07:54:33;99076.16;;;14.86;72.94
24154;BME280;12312;53.362;-1.518;2022-08-19T07:57:02;99075.19;;;15.06;73.10
24154;BME280;12312;53.362;-1.518;2022-08-19T07:59:28;99074.03;;;15.18;71.57
24154;BME280;12312;53.362;-1.518;2022-08-19T08:01:54;99085.63;;;15.09;71.39
24154;BME280;12312;53.362;-1.518;2022-08-19T08:04:20;99089.25;;;15.27;71.58
24154;BME280;12312;53.362;-1.518;2022-08-19T08:07:06;99100.97;;;15.26;70.63
24154;BME280;12312;53.362;-1.518;2022-08-19T08:09:51;99093.75;;;15.36;70.27
24154;BME280;12312;53.362;-1.518;2022-08-19T08:12:38;99090.44;;;14.96;70.74
24154;BME280;12312;53.362;-1.518;2022-08-19T08:15:12;99101.13;;;14.77;71.80
24154;BME280;12312;53.362;-1.518;2022-08-19T08:17:42;99099.16;;;14.79;71.17
24154;BME280;12312;53.362;-1.518;2022-08-19T08:20:09;99094.06;;;14.95;70.93
24154;BME280;12312;53.362;-1.518;2022-08-19T08:22:35;99095.91;;;15.23;70.04
24154;BME280;12312;53.362;-1.518;2022-08-19T08:25:21;99098.97;;;15.28;70.91
24154;BME280;12312;53.362;-1.518;2022-08-19T08:27:48;99096.59;;;15.25;68.20
24154;BME280;12312;53.362;-1.518;2022-08-19T08:30:23;99103.34;;;15.58;69.34
24154;BME280;12312;53.362;-1.518;2022-08-19T08:32:49;99097.16;;;15.84;67.81
24154;BME280;12312;53.362;-1.518;2022-08-19T08:35:18;99098.13;;;15.56;68.84
24154;BME280;12312;53.362;-1.518;2022-08-19T08:37:46;99095.91;;;15.88;67.85
24154;BME280;12312;53.362;-1.518;2022-08-19T08:40:26;99103.84;;;15.80;67.54
24154;BME280;12312;53.362;-1.518;2022-08-19T08:43:29;99110.88;;;15.81;67.78
24154;BME280;12312;53.362;-1.518;2022-08-19T08:48:46;99098.75;;;16.14;65.56
24154;BME280;12312;53.362;-1.518;2022-08-19T08:51:19;99100.28;;;15.80;66.78
24154;BME280;12312;53.362;-1.518;2022-08-19T08:53:49;99095.16;;;16.23;65.01
24154;BME280;12312;53.362;-1.518;2022-08-19T08:56:16;99087.97;;;15.96;63.34
24154;BME280;12312;53.362;-1.518;2022-08-19T08:58:51;99096.50;;;16.10;64.83
24154;BME280;12312;53.362;-1.518;2022-08-19T09:01:20;99099.50;;;16.07;63.72
24154;BME280;12312;53.362;-1.518;2022-08-19T09:03:46;99094.00;;;16.26;63.93
24154;BME280;12312;53.362;-1.518;2022-08-19T09:09:04;99101.47;;;16.32;60.73
24154;BME280;12312;53.362;-1.518;2022-08-19T09:15:27;99105.19;;;16.93;59.94
24154;BME280;12312;53.362;-1.518;2022-08-19T09:17:26;99106.13;;;16.84;59.19
24154;BME280;12312;53.362;-1.518;2022-08-19T09:20:05;99109.88;;;16.56;59.73
24154;BME280;12312;53.362;-1.518;2022-08-19T09:22:39;99103.81;;;16.71;58.96
24154;BME280;12312;53.362;-1.518;2022-08-19T09:25:09;99116.19;;;16.99;58.73
24154;BME280;12312;53.362;-1.518;2022-08-19T09:27:37;99114.03;;;16.85;58.39
24154;BME280;12312;53.362;-1.518;2022-08-19T09:30:05;99105.81;;;17.22;58.38
24154;BME280;12312;53.362;-1.518;2022-08-19T09:32:31;99107.19;;;17.69;56.93
24154;BME280;12312;53.362;-1.518;2022-08-19T09:34:56;99116.13;;;17.69;57.75
24154;BME280;12312;53.362;-1.518;2022-08-19T09:37:24;99115.19;;;17.18;57.35
24154;BME280;12312;53.362;-1.518;2022-08-19T09:39:51;99117.53;;;16.68;57.31
24154;BME280;12312;53.362;-1.518;2022-08-19T09:42:16;99113.78;;;16.79;57.87
24154;BME280;12312;53.362;-1.518;2022-08-19T09:44:43;99105.38;;;17.09;57.19
24154;BME280;12312;53.362;-1.518;2022-08-19T09:47:10;99104.97;;;17.04;59.70
24154;BME280;12312;53.362;-1.518;2022-08-19T09:49:38;99106.13;;;17.19;58.06
24154;BME280;12312;53.362;-1.518;2022-08-19T09:52:05;99111.31;;;17.38;57.99
24154;BME280;12312;53.362;-1.518;2022-08-19T09:54:33;99116.41;;;16.71;56.07
24154;BME280;12312;53.362;-1.518;2022-08-19T09:56:59;99109.88;;;16.73;56.93
24154;BME280;12312;53.362;-1.518;2022-08-19T09:59:28;99105.72;;;16.79;57.06
24154;BME280;12312;53.362;-1.518;2022-08-19T10:01:54;99120.31;;;16.76;58.33
24154;BME280;12312;53.362;-1.518;2022-08-19T10:04:20;99118.00;;;17.34;57.89
24154;BME280;12312;53.362;-1.518;2022-08-19T10:06:48;99121.75;;;17.41;57.12
24154;BME280;12312;53.362;-1.518;2022-08-19T10:09:15;99110.56;;;17.97;56.59
24154;BME280;12312;53.362;-1.518;2022-08-19T10:11:44;99119.69;;;18.04;54.77
24154;BME280;12312;53.362;-1.518;2022-08-19T10:14:15;99113.47;;;17.17;55.63
24154;BME280;12312;53.362;-1.518;2022-08-19T10:16:42;99113.03;;;17.04;54.06
24154;BME280;12312;53.362;-1.518;2022-08-19T10:19:08;99109.41;;;17.48;53.47
24154;BME280;12312;53.362;-1.518;2022-08-19T10:21:35;99116.00;;;17.79;53.00
24154;BME280;12312;53.362;-1.518;2022-08-19T10:24:04;99116.81;;;18.05;51.17
24154;BME280;12312;53.362;-1.518;2022-08-19T10:26:36;99111.22;;;18.24;51.49
24154;BME280;12312;53.362;-1.518;2022-08-19T10:29:03;99109.50;;;18.49;50.08
24154;BME280;12312;53.362;-1.518;2022-08-19T10:31:31;99112.03;;;18.50;51.83
24154;BME280;12312;53.362;-1.518;2022-08-19T10:33:58;99114.63;;;18.01;52.71
24154;BME280;12312;53.362;-1.518;2022-08-19T10:36:31;99112.56;;;17.95;52.15
24154;BME280;12312;53.362;-1.518;2022-08-19T10:38:59;99104.75;;;18.17;52.48
24154;BME280;12312;53.362;-1.518;2022-08-19T10:41:30;99119.00;;;17.76;52.94
24154;BME280;12312;53.362;-1.518;2022-08-19T10:43:58;99113.13;;;17.47;53.01
24154;BME280;12312;53.362;-1.518;2022-08-19T10:46:26;99110.28;;;17.82;53.58
24154;BME280;12312;53.362;-1.518;2022-08-19T10:48:53;99109.41;;;17.73;53.52
24154;BME280;12312;53.362;-1.518;2022-08-19T10:51:19;99105.03;;;17.98;52.85
24154;BME280;12312;53.362;-1.518;2022-08-19T10:54:04;99113.75;;;17.92;53.56
24154;BME280;12312;53.362;-1.518;2022-08-19T10:56:33;99108.53;;;17.65;52.45
24154;BME280;12312;53.362;-1.518;2022-08-19T11:01:45;99113.00;;;17.56;54.70
24154;BME280;12312;53.362;-1.518;2022-08-19T11:04:12;99107.97;;;17.87;54.64
24154;BME280;12312;53.362;-1.518;2022-08-19T11:06:42;99110.09;;;18.01;54.35
24154;BME280;12312;53.362;-1.518;2022-08-19T11:09:09;99115.03;;;18.14;53.42
24154;BME280;12312;53.362;-1.518;2022-08-19T11:11:37;99116.59;;;18.24;53.46
24154;BME280;12312;53.362;-1.518;2022-08-19T11:14:07;99104.91;;;18.08;51.42
24154;BME280;12312;53.362;-1.518;2022-08-19T11:16:33;99110.03;;;18.60;50.77
24154;BME280;12312;53.362;-1.518;2022-08-19T11:19:00;99110.97;;;18.43;50.93
24154;BME280;12312;53.362;-1.518;2022-08-19T11:21:34;99115.50;;;18.43;51.32
24154;BME280;12312;53.362;-1.518;2022-08-19T11:24:05;99115.38;;;17.85;50.44
24154;BME280;12312;53.362;-1.518;2022-08-19T11:26:31;99104.44;;;18.20;50.35
24154;BME280;12312;53.362;-1.518;2022-08-19T11:28:59;99106.59;;;18.09;51.20
24154;BME280;12312;53.362;-1.518;2022-08-19T11:31:28;99110.25;;;18.33;51.98
24154;BME280;12312;53.362;-1.518;2022-08-19T11:34:00;99097.66;;;19.56;47.54
24154;BME280;12312;53.362;-1.518;2022-08-19T11:36:27;99092.97;;;20.12;45.81
24154;BME280;12312;53.362;-1.518;2022-08-19T11:38:54;99095.78;;;20.35;44.09
24154;BME280;12312;53.362;-1.518;2022-08-19T11:41:21;99094.25;;;20.71;43.21
24154;BME280;12312;53.362;-1.518;2022-08-19T11:43:51;99081.44;;;21.92;41.71
24154;BME280;12312;53.362;-1.518;2022-08-19T11:46:19;99090.38;;;22.65;41.17
24154;BME280;12312;53.362;-1.518;2022-08-19T11:48:45;99079.13;;;23.04;38.23
24154;BME280;12312;53.362;-1.518;2022-08-19T11:51:15;99087.91;;;22.20;39.07
24154;BME280;12312;53.362;-1.518;2022-08-19T11:53:41;99082.16;;;21.12;42.04
24154;BME280;12312;53.362;-1.518;2022-08-19T11:56:08;99093.88;;;20.74;44.48
24154;BME280;12312;53.362;-1.518;2022-08-19T11:58:35;99088.28;;;20.45;46.53
24154;BME280;12312;53.362;-1.518;2022-08-19T12:01:06;99094.06;;;20.42;45.41
24154;BME280;12312;53.362;-1.518;2022-08-19T12:03:33;99106.94;;;20.40;45.53
24154;BME280;12312;53.362;-1.518;2022-08-19T12:06:04;99095.94;;;19.87;47.29
24154;BME280;12312;53.362;-1.518;2022-08-19T12:08:30;99101.00;;;19.82;47.33
24154;BME280;12312;53.362;-1.518;2022-08-19T12:10:56;99098.84;;;19.45;48.26
24154;BME280;12312;53.362;-1.518;2022-08-19T12:13:22;99100.72;;;19.36;49.35
24154;BME280;12312;53.362;-1.518;2022-08-19T12:15:48;99110.75;;;18.94;50.55
24154;BME280;12312;53.362;-1.518;2022-08-19T12:18:13;99109.78;;;19.19;50.82
24154;BME280;12312;53.362;-1.518;2022-08-19T12:20:43;99112.81;;;18.92;51.71
24154;BME280;12312;53.362;-1.518;2022-08-19T12:23:11;99111.91;;;18.34;53.61
24154;BME280;12312;53.362;-1.518;2022-08-19T12:25:42;99115.44;;;18.27;53.86
24154;BME280;12312;53.362;-1.518;2022-08-19T12:28:08;99122.06;;;18.40;53.94
24154;BME280;12312;53.362;-1.518;2022-08-19T12:30:37;99122.66;;;18.52;53.58
24154;BME280;12312;53.362;-1.518;2022-08-19T12:33:03;99128.16;;;18.42;54.21
24154;BME280;12312;53.362;-1.518;2022-08-19T12:35:28;99124.38;;;18.35;54.18
24154;BME280;12312;53.362;-1.518;2022-08-19T12:37:55;99122.00;;;18.24;54.60
24154;BME280;12312;53.362;-1.518;2022-08-19T12:40:21;99126.41;;;18.33;54.32
24154;BME280;12312;53.362;-1.518;2022-08-19T12:42:46;99126.53;;;18.24;54.92
24154;BME280;12312;53.362;-1.518;2022-08-19T12:45:42;99122.75;;;19.16;52.83
24154;BME280;12312;53.362;-1.518;2022-08-19T12:48:09;99108.44;;;19.48;51.24
24154;BME280;12312;53.362;-1.518;2022-08-19T12:50:34;99118.34;;;19.95;49.66
24154;BME280;12312;53.362;-1.518;2022-08-19T12:53:01;99107.84;;;20.63;47.33
24154;BME280;12312;53.362;-1.518;2022-08-19T12:55:26;99107.00;;;20.08;47.65
24154;BME280;12312;53.362;-1.518;2022-08-19T12:57:54;99114.63;;;19.96;46.95
24154;BME280;12312;53.362;-1.518;2022-08-19T13:00:21;99116.03;;;19.68;49.06
24154;BME280;12312;53.362;-1.518;2022-08-19T13:02:49;99111.41;;;20.01;48.57
24154;BME280;12312;53.362;-1.518;2022-08-19T13:05:21;99112.81;;;20.74;45.74
24154;BME280;12312;53.362;-1.518;2022-08-19T13:07:49;99113.06;;;20.18;47.23
24154;BME280;12312;53.362;-1.518;2022-08-19T13:10:18;99111.97;;;20.43;47.90